Time;durP1;ratioP1;P1;durP2;ratioP2;P2;SDS_P1;SDS_P2;PMS_P1;PMS_P2;Temp;Humidity;BMP_temperature;BMP_pressure;BME280_temperature;BME280_humidity;BME280_pressure;Samples;Min_cycle;Max_cycle;Signal;HPM_P1;HPM_P2
2021/05/10 00:01:11;;;;;;;0.77;0.40;;;20.80;48.10;;;;;;6242880;28;20029;-73
2021/05/10 00:04:12;;;;;;;1.33;0.40;;;20.80;48.10;;;;;;6243009;28;20144;-73
2021/05/10 00:07:12;;;;;;;1.00;0.40;;;20.80;48.10;;;;;;6242851;28;20030;-73
2021/05/10 00:10:13;;;;;;;0.50;0.40;;;20.80;48.10;;;;;;6242882;28;20048;-73
2021/05/10 00:13:16;;;;;;;0.30;0.30;;;20.80;48.10;;;;;;6242713;28;20030;-72
2021/05/10 00:16:18;;;;;;;0.40;0.40;;;20.80;48.10;;;;;;6242271;28;20029;-72
2021/05/10 00:19:18;;;;;;;0.40;0.40;;;20.80;48.10;;;;;;6242673;28;20056;-73
2021/05/10 00:22:19;;;;;;;0.32;0.30;;;20.80;48.10;;;;;;6242547;28;20025;-72
2021/05/10 00:25:19;;;;;;;0.65;0.40;;;20.80;48.20;;;;;;6242482;28;20026;-72
2021/05/10 00:28:20;;;;;;;0.43;0.30;;;20.80;48.10;;;;;;6240579;28;20127;-72
2021/05/10 00:31:20;;;;;;;0.35;0.30;;;20.80;48.10;;;;;;6242261;28;20055;-72
2021/05/10 00:34:21;;;;;;;0.43;0.30;;;20.80;48.20;;;;;;6242100;28;20072;-72
2021/05/10 00:37:21;;;;;;;0.38;0.30;;;20.80;48.20;;;;;;6242639;28;20034;-73
2021/05/10 00:40:24;;;;;;;0.40;0.38;;;20.80;48.20;;;;;;6242612;28;20519;-72
2021/05/10 00:43:25;;;;;;;0.45;0.35;;;20.80;48.20;;;;;;6242087;28;20025;-72
2021/05/10 00:46:26;;;;;;;0.57;0.20;;;20.80;48.20;;;;;;6242509;28;20044;-73
2021/05/10 00:49:26;;;;;;;0.70;0.47;;;20.80;48.20;;;;;;6217101;28;20034;-74
2021/05/10 00:52:27;;;;;;;0.20;0.20;;;20.80;48.20;;;;;;6228867;28;20021;-72
2021/05/10 00:55:27;;;;;;;0.40;0.35;;;20.80;48.20;;;;;;6242260;28;20032;-72
2021/05/10 00:58:28;;;;;;;0.63;0.30;;;20.80;48.20;;;;;;6241843;28;20033;-72
2021/05/10 01:01:28;;;;;;;0.40;0.30;;;20.80;48.20;;;;;;6242314;28;20083;-73
2021/05/10 01:04:29;;;;;;;0.30;0.30;;;20.80;48.20;;;;;;6242224;28;20037;-73
2021/05/10 01:07:30;;;;;;;0.40;0.40;;;20.80;48.20;;;;;;6241864;28;20060;-72
2021/05/10 01:10:31;;;;;;;0.35;0.35;;;20.80;48.20;;;;;;6242658;28;20029;-72
2021/05/10 01:13:31;;;;;;;0.40;0.40;;;20.80;48.20;;;;;;6241980;28;20032;-73
2021/05/10 01:16:32;;;;;;;0.28;0.20;;;20.80;48.20;;;;;;6241959;28;20067;-72
2021/05/10 01:19:35;;;;;;;0.40;0.30;;;20.80;48.20;;;;;;6241357;28;20021;-73
2021/05/10 01:22:46;;;;;;;0.20;0.20;;;20.80;48.20;;;;;;6241910;28;20029;-73
2021/05/10 01:25:49;;;;;;;0.28;0.20;;;20.80;48.20;;;;;;6246842;28;20591;-72
2021/05/10 01:28:50;;;;;;;0.20;0.20;;;20.80;48.20;;;;;;6246470;28;20044;-72
2021/05/10 01:31:50;;;;;;;0.20;0.20;;;20.80;48.20;;;;;;6246311;28;20429;-72
2021/05/10 01:34:51;;;;;;;0.28;0.28;;;20.80;48.20;;;;;;6245919;28;20045;-72
2021/05/10 01:37:52;;;;;;;0.50;0.40;;;20.80;48.20;;;;;;6246365;28;20032;-73
2021/05/10 01:40:52;;;;;;;0.32;0.30;;;20.80;48.20;;;;;;6246838;28;20033;-73
2021/05/10 01:43:53;;;;;;;0.30;0.30;;;20.80;48.20;;;;;;6246467;28;20056;-72
2021/05/10 01:46:53;;;;;;;0.30;0.30;;;20.80;48.20;;;;;;6246232;28;20106;-72
2021/05/10 01:49:54;;;;;;;0.32;0.30;;;20.80;48.20;;;;;;6243596;28;20095;-73
2021/05/10 01:52:55;;;;;;;0.40;0.30;;;20.80;48.20;;;;;;6245963;28;20065;-72
2021/05/10 01:55:57;;;;;;;0.30;0.30;;;20.80;48.20;;;;;;6245970;28;20041;-73
2021/05/10 01:58:57;;;;;;;0.20;0.20;;;20.80;48.20;;;;;;6245728;28;20029;-72
2021/05/10 02:01:58;;;;;;;0.20;0.20;;;20.80;48.20;;;;;;6245852;28;20053;-72
2021/05/10 02:05:14;;;;;;;0.20;0.20;;;20.80;48.20;;;;;;6244002;28;20573;-72
2021/05/10 02:08:15;;;;;;;0.40;0.30;;;20.80;48.20;;;;;;6245431;28;20540;-72
2021/05/10 02:11:15;;;;;;;0.30;0.30;;;20.80;48.20;;;;;;6245767;28;20025;-72
2021/05/10 02:14:16;;;;;;;0.30;0.30;;;20.80;48.20;;;;;;6245386;28;20104;-72
2021/05/10 02:17:16;;;;;;;0.20;0.20;;;20.80;48.20;;;;;;6243487;28;20032;-73
2021/05/10 02:20:18;;;;;;;0.22;0.20;;;20.80;48.20;;;;;;6245393;28;20100;-73
2021/05/10 02:23:21;;;;;;;0.17;0.17;;;20.80;48.20;;;;;;6243874;28;20055;-73
2021/05/10 02:26:22;;;;;;;0.30;0.22;;;20.80;48.20;;;;;;6245487;28;20049;-73
2021/05/10 02:29:22;;;;;;;0.30;0.25;;;20.80;48.20;;;;;;6244821;28;20083;-73
2021/05/10 02:32:23;;;;;;;0.20;0.20;;;20.80;48.20;;;;;;6245474;28;20113;-73
2021/05/10 02:35:23;;;;;;;0.30;0.30;;;20.80;48.20;;;;;;6244715;28;20403;-73
2021/05/10 02:38:25;;;;;;;0.25;0.20;;;20.80;48.20;;;;;;6244797;28;20031;-73
2021/05/10 02:41:25;;;;;;;0.20;0.20;;;20.80;48.20;;;;;;6245004;28;20082;-73
2021/05/10 02:44:26;;;;;;;0.30;0.30;;;20.80;48.20;;;;;;6245076;28;20029;-73
2021/05/10 02:47:26;;;;;;;0.20;0.20;;;20.80;48.20;;;;;;6245020;28;20329;-73
2021/05/10 02:50:27;;;;;;;0.38;0.35;;;20.80;48.30;;;;;;6244307;28;20144;-73
2021/05/10 02:53:28;;;;;;;0.50;0.30;;;20.80;48.20;;;;;;6244907;28;20053;-73
2021/05/10 02:56:28;;;;;;;0.32;0.30;;;20.80;48.20;;;;;;6244440;28;20030;-73
2021/05/10 02:59:29;;;;;;;0.30;0.30;;;20.80;48.20;;;;;;6243837;28;20033;-72
2021/05/10 03:02:29;;;;;;;0.35;0.20;;;20.80;48.20;;;;;;6243361;28;20090;-73
2021/05/10 03:05:30;;;;;;;0.20;0.20;;;20.80;48.20;;;;;;6244390;28;20064;-72
2021/05/10 03:08:30;;;;;;;0.55;0.20;;;20.80;48.20;;;;;;6244295;28;20109;-72
2021/05/10 03:11:31;;;;;;;0.40;0.20;;;20.80;48.30;;;;;;6244106;28;20049;-72
2021/05/10 03:14:32;;;;;;;0.40;0.40;;;20.80;48.20;;;;;;6243994;28;20030;-73
2021/05/10 03:17:32;;;;;;;0.30;0.25;;;20.80;48.30;;;;;;6244440;28;20021;-73
2021/05/10 03:20:33;;;;;;;0.30;0.30;;;20.80;48.20;;;;;;6244097;28;20067;-73
2021/05/10 03:23:33;;;;;;;0.30;0.30;;;20.80;48.20;;;;;;6243877;28;20400;-73
2021/05/10 03:26:34;;;;;;;0.40;0.30;;;20.80;48.20;;;;;;6244161;28;20043;-73
2021/05/10 03:29:35;;;;;;;0.43;0.20;;;20.80;48.20;;;;;;6243613;28;20037;-72
2021/05/10 03:32:36;;;;;;;0.20;0.20;;;20.80;48.30;;;;;;6244010;28;20044;-73
2021/05/10 03:35:37;;;;;;;0.30;0.20;;;20.80;48.30;;;;;;6243750;28;20050;-73
2021/05/10 03:38:37;;;;;;;0.20;0.20;;;20.80;48.30;;;;;;6243881;28;20076;-73
2021/05/10 03:41:38;;;;;;;0.30;0.30;;;20.80;48.20;;;;;;6243476;28;20033;-72
2021/05/10 03:44:38;;;;;;;0.17;0.17;;;20.80;48.20;;;;;;6243530;28;20033;-72
2021/05/10 03:47:39;;;;;;;0.13;0.13;;;20.80;48.20;;;;;;6242830;28;20044;-73
2021/05/10 03:50:40;;;;;;;0.20;0.20;;;20.80;48.20;;;;;;6243455;28;20387;-73
2021/05/10 03:53:40;;;;;;;0.20;0.20;;;20.80;48.20;;;;;;6243118;28;20068;-73
2021/05/10 03:56:41;;;;;;;0.20;0.20;;;20.80;48.20;;;;;;6243389;28;20083;-73
2021/05/10 04:03:45;;;;;;;0.13;0.13;;;20.80;48.30;;;;;;6243689;28;20018;-73
2021/05/10 04:07:16;;;;;;;0.20;0.20;;;20.80;48.30;;;;;;6242676;28;20083;-72
2021/05/10 04:13:58;;;;;;;0.20;0.20;;;20.80;48.30;;;;;;6243086;28;20021;-73
2021/05/10 04:16:58;;;;;;;0.20;0.20;;;20.80;48.30;;;;;;6242531;28;20123;-74
2021/05/10 04:19:58;;;;;;;0.40;0.30;;;20.80;48.30;;;;;;6242889;28;20044;-72
2021/05/10 04:22:59;;;;;;;0.20;0.20;;;20.80;48.30;;;;;;6242557;28;20091;-73
2021/05/10 04:25:59;;;;;;;0.20;0.20;;;20.80;49.00;;;;;;6242818;28;20033;-73
2021/05/10 04:29:00;;;;;;;0.20;0.20;;;20.80;48.30;;;;;;6242710;28;20034;-73
2021/05/10 04:32:01;;;;;;;0.17;0.17;;;20.80;48.30;;;;;;6243070;28;20459;-72
2021/05/10 04:35:01;;;;;;;0.20;0.20;;;20.80;48.30;;;;;;6242814;28;20049;-73
2021/05/10 04:38:07;;;;;;;0.22;0.20;;;20.80;48.30;;;;;;6242615;28;20037;-73
2021/05/10 04:41:07;;;;;;;0.20;0.20;;;20.80;48.30;;;;;;6242194;28;20503;-73
2021/05/10 04:44:08;;;;;;;0.30;0.30;;;20.80;48.30;;;;;;6242583;28;20124;-73
2021/05/10 04:47:09;;;;;;;0.30;0.30;;;20.80;48.30;;;;;;6241721;28;20040;-73
2021/05/10 04:50:10;;;;;;;0.22;0.22;;;20.80;48.30;;;;;;6242494;28;20048;-73
2021/05/10 04:53:12;;;;;;;0.20;0.20;;;20.80;48.30;;;;;;6242653;28;20026;-73
2021/05/10 04:56:13;;;;;;;0.25;0.25;;;20.80;48.30;;;;;;6241746;28;20037;-73
2021/05/10 04:59:13;;;;;;;0.50;0.30;;;20.80;48.30;;;;;;6244523;28;20033;-74
2021/05/10 05:02:14;;;;;;;0.17;0.17;;;20.80;48.30;;;;;;6234176;28;20398;-73
2021/05/10 05:05:14;;;;;;;0.20;0.20;;;20.80;48.30;;;;;;6222628;28;20057;-73
2021/05/10 05:08:15;;;;;;;0.50;0.20;;;20.80;48.30;;;;;;6239850;28;20505;-73
2021/05/10 05:11:15;;;;;;;0.47;0.30;;;20.80;48.30;;;;;;6247082;28;20395;-73
2021/05/10 05:14:16;;;;;;;0.25;0.20;;;20.80;48.30;;;;;;6246765;28;20022;-73
2021/05/10 05:17:16;;;;;;;1.48;0.40;;;20.80;48.30;;;;;;6246529;28;20029;-73
2021/05/10 05:20:18;;;;;;;0.40;0.30;;;20.80;48.30;;;;;;6246859;28;20022;-73
2021/05/10 05:23:26;;;;;;;0.20;0.20;;;20.80;48.30;;;;;;6247073;28;20435;-73
2021/05/10 05:26:27;;;;;;;0.22;0.20;;;20.90;48.40;;;;;;6232240;28;20042;-73
2021/05/10 05:29:27;;;;;;;0.28;0.25;;;20.80;48.30;;;;;;6245934;28;20036;-73
2021/05/10 05:32:28;;;;;;;0.63;0.30;;;20.90;48.40;;;;;;6245104;28;20028;-73
2021/05/10 05:35:28;;;;;;;0.20;0.20;;;20.90;48.40;;;;;;6245302;28;20072;-73
2021/05/10 05:38:34;;;;;;;0.35;0.30;;;20.80;48.30;;;;;;6243851;28;20029;-73
2021/05/10 05:41:35;;;;;;;;;;;20.90;48.40;;;;;;6246058;28;20028;-73
2021/05/10 05:44:37;;;;;;;1.42;0.80;;;20.80;48.30;;;;;;6243471;28;19909;-73
2021/05/10 05:47:38;;;;;;;1.08;0.75;;;20.80;47.60;;;;;;6245513;28;20083;-73
2021/05/10 05:50:39;;;;;;;2.35;0.85;;;20.80;47.20;;;;;;6245674;28;20034;-72
2021/05/10 05:53:40;;;;;;;1.77;0.90;;;20.80;46.30;;;;;;6245303;28;20021;-73
2021/05/10 05:56:41;;;;;;;6.60;1.13;;;20.80;46.70;;;;;;6244888;28;20079;-73
2021/05/10 05:59:41;;;;;;;1.42;0.77;;;20.80;46.30;;;;;;6241480;28;20029;-73
2021/05/10 06:02:42;;;;;;;2.33;0.93;;;20.80;46.30;;;;;;6244689;28;20036;-72
2021/05/10 06:05:42;;;;;;;3.85;1.00;;;20.80;46.20;;;;;;6247829;28;20021;-73
2021/05/10 06:08:43;;;;;;;4.15;1.13;;;20.70;45.40;;;;;;6247682;28;20395;-73
2021/05/10 06:11:43;;;;;;;2.72;1.08;;;20.70;45.60;;;;;;6245774;28;20029;-73
2021/05/10 06:14:44;;;;;;;1.50;1.10;;;20.80;46.30;;;;;;6246861;28;20079;-73
2021/05/10 06:17:45;;;;;;;4.20;1.25;;;20.70;45.40;;;;;;6247552;28;20049;-73
2021/05/10 06:20:46;;;;;;;3.78;1.10;;;20.80;45.30;;;;;;6248271;28;20518;-73
2021/05/10 06:23:48;;;;;;;3.38;1.30;;;20.80;45.10;;;;;;6248192;28;20028;-73
2021/05/10 06:26:48;;;;;;;6.30;1.20;;;20.80;45.30;;;;;;6246797;28;20496;-72
2021/05/10 06:29:49;;;;;;;2.15;1.25;;;20.80;45.30;;;;;;6245097;28;20530;-73
2021/05/10 06:32:50;;;;;;;2.70;1.20;;;20.80;45.30;;;;;;6247413;28;20041;-72
2021/05/10 06:35:51;;;;;;;4.53;1.17;;;20.80;45.20;;;;;;6245623;28;20401;-73
2021/05/10 06:38:51;;;;;;;3.80;1.10;;;20.80;45.10;;;;;;6246196;28;20564;-73
2021/05/10 06:41:52;;;;;;;3.67;1.17;;;20.80;45.60;;;;;;6247460;28;20072;-73
2021/05/10 06:44:53;;;;;;;3.72;1.02;;;20.80;46.00;;;;;;6247111;28;20472;-73
2021/05/10 06:47:54;;;;;;;2.45;1.02;;;20.80;45.10;;;;;;6247328;28;20040;-72
2021/05/10 06:50:55;;;;;;;2.28;1.20;;;20.80;45.30;;;;;;6247431;28;20400;-73
2021/05/10 06:53:56;;;;;;;4.43;1.40;;;20.80;45.00;;;;;;6248421;28;20034;-72
2021/05/10 06:56:56;;;;;;;2.17;1.00;;;20.80;46.10;;;;;;6245579;28;20029;-72
2021/05/10 06:59:57;;;;;;;3.55;1.23;;;20.80;46.30;;;;;;6247467;28;20032;-73
2021/05/10 07:02:57;;;;;;;2.50;1.30;;;20.80;45.90;;;;;;6245188;28;20040;-73
2021/05/10 07:05:58;;;;;;;4.75;1.20;;;20.80;46.40;;;;;;6245568;28;20036;-73
2021/05/10 07:08:58;;;;;;;3.42;1.25;;;20.80;46.30;;;;;;6246359;28;20400;-73
2021/05/10 07:11:59;;;;;;;2.25;1.13;;;20.80;46.60;;;;;;6243232;28;20034;-72
2021/05/10 07:14:59;;;;;;;3.03;1.48;;;20.80;46.30;;;;;;6246012;28;20377;-72
2021/05/10 07:18:08;;;;;;;6.53;1.83;;;20.80;46.40;;;;;;6245724;28;20071;-72
2021/05/10 07:21:09;;;;;;;2.85;1.40;;;20.80;46.10;;;;;;6243637;28;20129;-73
2021/05/10 07:24:09;;;;;;;3.22;1.50;;;20.80;46.40;;;;;;6246589;28;20029;-73
2021/05/10 07:27:10;;;;;;;3.00;1.15;;;20.80;46.60;;;;;;6245795;28;20049;-73
2021/05/10 07:30:10;;;;;;;4.40;1.30;;;20.80;46.30;;;;;;6245938;28;20030;-73
2021/05/10 07:33:11;;;;;;;1.98;1.15;;;20.80;47.40;;;;;;6246219;28;21080;-73
2021/05/10 07:36:12;;;;;;;3.45;1.20;;;20.80;46.60;;;;;;6245334;28;20049;-73
2021/05/10 07:39:12;;;;;;;1.38;0.98;;;20.80;46.70;;;;;;6246409;28;20029;-73
2021/05/10 07:42:13;;;;;;;3.05;1.15;;;20.80;46.70;;;;;;6246232;28;20022;-72
2021/05/10 07:45:13;;;;;;;4.18;1.23;;;20.80;46.70;;;;;;6245486;28;20493;-73
2021/05/10 07:48:14;;;;;;;1.75;1.15;;;20.80;47.50;;;;;;6246043;28;20036;-73
2021/05/10 07:51:15;;;;;;;3.60;1.20;;;20.80;46.80;;;;;;6246034;28;20029;-73
2021/05/10 07:54:15;;;;;;;2.85;1.10;;;20.80;46.70;;;;;;6244239;28;20100;-73
2021/05/10 07:57:16;;;;;;;7.30;1.58;;;20.80;46.80;;;;;;6245666;28;20085;-73
2021/05/10 08:00:23;;;;;;;1.20;1.00;;;20.80;46.80;;;;;;6245483;28;20376;-73
2021/05/10 08:03:27;;;;;;;1.88;1.15;;;20.80;46.80;;;;;;6246434;28;20049;-72
2021/05/10 08:06:27;;;;;;;4.22;1.38;;;20.80;46.80;;;;;;6245445;28;20030;-72
2021/05/10 08:09:28;;;;;;;4.75;1.30;;;20.80;46.60;;;;;;6245115;28;20069;-72
2021/05/10 08:12:28;;;;;;;2.35;1.27;;;20.80;46.80;;;;;;6243664;28;20043;-73
2021/05/10 08:15:29;;;;;;;8.27;1.83;;;20.80;46.70;;;;;;6247591;28;20397;-73
2021/05/10 08:18:29;;;;;;;2.50;1.30;;;20.80;46.80;;;;;;6246037;28;20119;-73
2021/05/10 08:21:31;;;;;;;1.92;1.10;;;20.80;46.80;;;;;;6244901;28;20044;-72
2021/05/10 08:24:32;;;;;;;2.60;1.15;;;20.80;46.90;;;;;;6245883;28;20029;-73
2021/05/10 08:27:34;;;;;;;3.30;1.30;;;20.80;46.90;;;;;;6244757;28;20128;-73
2021/05/10 08:30:35;;;;;;;2.47;1.15;;;20.80;47.00;;;;;;6245202;28;20131;-73
2021/05/10 08:33:35;;;;;;;2.10;1.20;;;20.80;47.70;;;;;;6242451;28;20484;-72
2021/05/10 08:36:36;;;;;;;3.28;1.10;;;20.80;47.10;;;;;;6244693;28;20056;-72
2021/05/10 08:39:36;;;;;;;1.73;1.10;;;20.80;47.10;;;;;;6245723;28;20032;-73
2021/05/10 08:42:38;;;;;;;5.60;1.52;;;20.80;47.10;;;;;;6245056;28;20034;-73
2021/05/10 08:45:39;;;;;;;1.38;0.98;;;20.80;47.20;;;;;;6244693;28;20033;-73
2021/05/10 08:48:40;;;;;;;2.75;1.10;;;20.80;47.20;;;;;;6221354;28;20412;-72
2021/05/10 08:51:40;;;;;;;1.98;1.15;;;20.80;47.20;;;;;;6244740;28;20018;-73
2021/05/10 08:54:41;;;;;;;2.80;1.25;;;20.80;47.20;;;;;;6245265;28;20123;-73
2021/05/10 08:57:42;;;;;;;1.83;1.20;;;20.80;47.90;;;;;;6246124;28;20093;-73
2021/05/10 09:00:55;;;;;;;1.95;1.17;;;20.80;47.30;;;;;;6245402;28;20017;-72
2021/05/10 09:03:55;;;;;;;2.15;0.90;;;20.80;47.20;;;;;;6245389;28;20068;-73
2021/05/10 09:07:17;;;;;;;2.38;1.00;;;20.80;47.30;;;;;;6244183;28;20061;-73
2021/05/10 09:10:17;;;;;;;1.90;0.98;;;20.80;47.30;;;;;;6245014;28;20060;-73
2021/05/10 09:13:41;;;;;;;1.05;0.90;;;20.80;47.30;;;;;;6245455;28;20033;-73
2021/05/10 09:16:53;;;;;;;1.88;1.02;;;20.80;47.30;;;;;;6244316;28;20071;-72
2021/05/10 09:19:57;;;;;;;1.60;0.88;;;20.80;47.30;;;;;;6245013;28;20471;-73
2021/05/10 09:23:00;;;;;;;2.00;1.00;;;20.80;47.30;;;;;;6244896;28;20037;-72
2021/05/10 09:26:00;;;;;;;1.95;1.13;;;20.80;47.30;;;;;;6244429;28;20065;-73
2021/05/10 09:29:02;;;;;;;1.98;1.10;;;20.80;47.40;;;;;;6245298;28;20036;-72
2021/05/10 09:32:02;;;;;;;3.92;0.82;;;20.80;47.40;;;;;;6244696;28;20033;-73
2021/05/10 09:35:13;;;;;;;1.33;0.98;;;20.80;47.40;;;;;;6243722;28;20060;-73
2021/05/10 09:38:17;;;;;;;1.50;0.80;;;20.80;47.40;;;;;;6240790;28;20032;-73
2021/05/10 09:41:18;;;;;;;2.87;0.90;;;20.80;47.40;;;;;;6241382;28;20117;-72
2021/05/10 09:44:18;;;;;;;1.20;0.90;;;20.80;47.40;;;;;;6244052;28;20627;-72
2021/05/10 09:47:22;;;;;;;2.10;1.30;;;20.80;47.50;;;;;;6247933;28;20026;-73
2021/05/10 09:50:33;;;;;;;3.60;1.08;;;20.80;47.40;;;;;;6248553;28;20029;-72
2021/05/10 09:53:35;;;;;;;1.88;1.10;;;20.80;47.40;;;;;;6243447;28;20026;-72
2021/05/10 09:56:37;;;;;;;2.40;1.00;;;20.90;47.40;;;;;;6248724;28;20495;-74
2021/05/10 09:59:37;;;;;;;4.20;1.20;;;20.90;47.40;;;;;;6246586;28;20038;-73
2021/05/10 10:02:38;;;;;;;1.27;1.08;;;20.90;47.40;;;;;;6248896;28;20096;-72
2021/05/10 10:05:39;;;;;;;3.78;1.02;;;20.90;47.40;;;;;;6247097;28;20483;-73
2021/05/10 10:08:44;;;;;;;2.08;1.20;;;21.00;47.50;;;;;;6248254;28;20060;-73
2021/05/10 10:11:45;;;;;;;3.83;1.77;;;21.00;47.40;;;;;;6245369;28;20079;-73
2021/05/10 10:14:45;;;;;;;2.50;1.15;;;21.00;47.40;;;;;;6244263;28;20042;-73
2021/05/10 10:17:46;;;;;;;1.23;0.90;;;21.00;47.40;;;;;;6248263;28;20118;-73
2021/05/10 10:20:49;;;;;;;2.20;1.15;;;21.00;47.40;;;;;;6245392;28;20175;-73
2021/05/10 10:23:54;;;;;;;1.90;1.10;;;21.00;47.40;;;;;;6246273;28;20025;-73
2021/05/10 10:26:56;;;;;;;1.48;1.02;;;21.00;47.30;;;;;;6248851;28;20032;-72
2021/05/10 10:29:59;;;;;;;3.40;1.35;;;21.10;47.40;;;;;;6250734;28;20136;-72
2021/05/10 10:33:05;;;;;;;2.65;0.93;;;21.10;47.50;;;;;;6251184;28;20200;-73
2021/05/10 10:36:14;;;;;;;1.70;0.93;;;21.10;47.50;;;;;;6251898;28;20818;-73
2021/05/10 10:39:23;;;;;;;1.95;1.20;;;21.10;47.50;;;;;;6253895;28;20421;-73
2021/05/10 10:42:30;;;;;;;2.25;0.70;;;21.10;47.50;;;;;;6253596;28;20497;-72
2021/05/10 10:45:31;;;;;;;2.83;1.20;;;21.10;47.50;;;;;;6251568;28;20056;-73
2021/05/10 10:48:31;;;;;;;3.17;1.10;;;21.10;47.50;;;;;;6246297;28;20033;-72
2021/05/10 10:51:52;;;;;;;2.55;0.90;;;21.10;47.50;;;;;;6254705;28;20222;-72
2021/05/10 10:55:11;;;;;;;2.35;0.98;;;21.10;47.50;;;;;;6256881;28;20025;-72
2021/05/10 10:58:12;;;;;;;2.25;0.88;;;21.10;47.50;;;;;;6257622;28;20043;-73
2021/05/10 11:01:23;;;;;;;4.05;1.00;;;21.10;47.60;;;;;;6255379;28;20030;-72
2021/05/10 11:04:31;;;;;;;2.08;0.70;;;21.10;47.60;;;;;;6262699;28;20048;-71
2021/05/10 11:08:02;;;;;;;6.18;1.20;;;21.10;47.60;;;;;;6254093;28;20485;-73
2021/05/10 11:11:03;;;;;;;1.83;1.00;;;21.10;47.70;;;;;;6250628;28;20076;-73
2021/05/10 11:14:04;;;;;;;1.42;1.10;;;21.10;47.70;;;;;;6250895;28;20579;-73
2021/05/10 11:17:04;;;;;;;2.53;0.90;;;21.10;47.70;;;;;;6251858;28;20025;-74
2021/05/10 11:20:11;;;;;;;1.80;0.88;;;21.10;47.80;;;;;;6254175;28;20492;-73
2021/05/10 11:23:24;;;;;;;1.73;0.88;;;21.10;47.70;;;;;;6252305;28;20033;-72
2021/05/10 11:26:45;;;;;;;1.65;0.90;;;21.10;47.70;;;;;;6247424;28;20025;-71
2021/05/10 11:29:49;;;;;;;2.17;1.10;;;21.10;47.80;;;;;;6247412;28;20033;-72
2021/05/10 11:32:53;;;;;;;1.88;1.00;;;21.10;47.80;;;;;;6246554;28;20037;-73
2021/05/10 11:35:54;;;;;;;2.10;1.10;;;21.10;47.80;;;;;;6252181;28;20052;-72
2021/05/10 11:38:58;;;;;;;1.73;1.00;;;21.10;47.80;;;;;;6251791;28;20055;-73
2021/05/10 11:42:10;;;;;;;1.25;0.68;;;21.10;47.80;;;;;;6245323;28;20021;-73
2021/05/10 11:45:11;;;;;;;2.13;0.85;;;21.10;47.80;;;;;;6244030;28;20077;-73
2021/05/10 11:48:11;;;;;;;3.72;0.98;;;21.10;47.80;;;;;;6240283;28;20124;-73
2021/05/10 11:51:22;;;;;;;2.65;0.70;;;21.10;47.80;;;;;;6245702;28;20022;-73
2021/05/10 11:54:23;;;;;;;1.88;1.00;;;21.20;48.00;;;;;;6244933;28;20061;-73
2021/05/10 11:57:27;;;;;;;0.95;0.70;;;21.10;47.90;;;;;;6243940;28;20032;-73
2021/05/10 12:00:28;;;;;;;1.83;0.93;;;21.20;48.00;;;;;;6244914;28;20033;-72
2021/05/10 12:03:28;;;;;;;2.35;0.85;;;21.10;47.90;;;;;;6245530;28;20025;-72
2021/05/10 12:06:30;;;;;;;1.45;0.80;;;21.10;47.90;;;;;;6245320;28;20048;-72
2021/05/10 12:09:38;;;;;;;1.73;1.00;;;21.20;48.00;;;;;;6243816;28;20021;-73
2021/05/10 12:12:41;;;;;;;1.23;0.80;;;21.20;48.00;;;;;;6241796;28;20029;-73
2021/05/10 12:15:41;;;;;;;1.70;0.75;;;21.20;48.00;;;;;;6244627;28;20035;-73
2021/05/10 12:18:55;;;;;;;1.42;0.80;;;21.20;48.00;;;;;;6244072;28;20033;-73
2021/05/10 12:22:05;;;;;;;0.80;0.60;;;21.20;47.90;;;;;;6241766;28;20029;-74
2021/05/10 12:25:10;;;;;;;4.00;0.90;;;21.30;48.00;;;;;;6244724;28;20431;-73
2021/05/10 12:28:14;;;;;;;2.40;0.70;;;21.30;48.10;;;;;;6243627;28;20026;-73
2021/05/10 12:31:14;;;;;;;0.80;0.70;;;21.30;48.10;;;;;;6244429;28;20026;-73
2021/05/10 12:34:15;;;;;;;2.25;0.70;;;21.30;48.10;;;;;;6243927;28;20099;-74
2021/05/10 12:37:16;;;;;;;4.80;0.82;;;21.30;48.10;;;;;;6245528;28;20037;-73
2021/05/10 12:40:19;;;;;;;2.13;0.82;;;21.30;48.20;;;;;;6245270;28;20378;-73
2021/05/10 12:43:22;;;;;;;2.63;0.90;;;21.30;48.20;;;;;;6245256;28;20496;-73
2021/05/10 12:46:24;;;;;;;2.03;0.70;;;21.30;48.10;;;;;;6245182;28;20048;-73
2021/05/10 12:49:24;;;;;;;1.45;1.00;;;21.40;48.30;;;;;;6245189;28;20029;-73
2021/05/10 12:52:25;;;;;;;1.52;0.90;;;21.40;48.20;;;;;;6244765;28;20105;-74
2021/05/10 12:55:25;;;;;;;1.65;0.73;;;21.40;48.40;;;;;;6243214;28;20025;-73
2021/05/10 12:58:26;;;;;;;1.77;0.93;;;21.40;48.40;;;;;;6244431;28;20427;-73
2021/05/10 13:01:30;;;;;;;1.70;0.70;;;21.40;48.30;;;;;;6243222;28;20099;-73
2021/05/10 13:04:44;;;;;;;1.10;0.70;;;21.30;48.30;;;;;;6244273;28;20025;-73
2021/05/10 13:07:48;;;;;;;1.35;0.95;;;21.30;48.30;;;;;;6244429;28;20355;-73
2021/05/10 13:10:54;;;;;;;0.80;0.60;;;21.30;48.40;;;;;;6244633;28;20554;-73
2021/05/10 13:14:14;;;;;;;1.55;0.80;;;21.30;48.40;;;;;;6244412;28;20033;-73
2021/05/10 13:20:27;;;;;;;1.15;0.70;;;21.20;48.60;;;;;;6247456;28;20041;-73
2021/05/10 13:37:14;;;;;;;2.55;0.60;;;21.30;48.40;;;;;;6248115;28;20033;-74
2021/05/10 13:40:15;;;;;;;2.88;0.60;;;21.20;48.30;;;;;;6249019;28;20048;-73
2021/05/10 13:43:27;;;;;;;1.50;0.73;;;21.20;49.00;;;;;;6247552;28;20029;-73
2021/05/10 13:46:29;;;;;;;0.82;0.70;;;21.20;48.30;;;;;;6247676;28;20029;-73
2021/05/10 13:49:30;;;;;;;0.68;0.50;;;21.20;48.30;;;;;;6247664;28;20048;-73
2021/05/10 13:52:30;;;;;;;2.90;0.80;;;21.20;48.40;;;;;;6247598;28;20484;-73
2021/05/10 13:55:31;;;;;;;1.55;0.88;;;21.20;48.40;;;;;;6247133;28;20041;-74
2021/05/10 13:58:32;;;;;;;0.68;0.57;;;21.20;48.40;;;;;;6247947;28;20747;-73
2021/05/10 14:01:33;;;;;;;1.52;0.85;;;21.20;48.60;;;;;;6245024;28;20495;-73
2021/05/10 14:04:33;;;;;;;0.90;0.80;;;21.20;48.60;;;;;;6247120;28;20104;-73
2021/05/10 14:07:34;;;;;;;11.40;1.23;;;21.20;48.50;;;;;;6241618;28;20091;-74
2021/05/10 14:10:37;;;;;;;5.25;0.90;;;21.20;48.90;;;;;;6247351;28;20562;-73
2021/05/10 14:13:37;;;;;;;3.28;0.73;;;21.20;48.60;;;;;;6246897;28;20055;-73
2021/05/10 14:16:43;;;;;;;5.45;0.70;;;21.20;48.60;;;;;;6246563;28;20017;-73
2021/05/10 14:19:43;;;;;;;1.23;0.60;;;21.20;48.50;;;;;;6246197;28;20471;-73
2021/05/10 14:22:44;;;;;;;0.80;0.60;;;21.10;48.50;;;;;;6247178;28;20032;-73
2021/05/10 14:25:44;;;;;;;2.65;0.70;;;21.20;48.50;;;;;;6247014;28;20531;-73
2021/05/10 14:28:45;;;;;;;2.45;0.73;;;21.10;48.50;;;;;;6247183;28;20063;-73
2021/05/10 14:31:45;;;;;;;2.58;0.70;;;21.10;48.50;;;;;;6246415;28;20104;-74
2021/05/10 14:34:46;;;;;;;0.60;0.50;;;21.10;48.50;;;;;;6246385;28;20053;-73
2021/05/10 14:37:46;;;;;;;0.88;0.60;;;21.10;48.50;;;;;;6247524;28;20500;-73
2021/05/10 14:40:47;;;;;;;1.05;0.50;;;21.10;48.50;;;;;;6246884;28;20116;-74
2021/05/10 14:43:48;;;;;;;0.95;0.63;;;21.10;48.50;;;;;;6245807;28;20041;-74
2021/05/10 14:46:48;;;;;;;5.72;0.40;;;21.10;48.50;;;;;;6247031;28;20560;-73
2021/05/10 14:49:49;;;;;;;0.98;0.52;;;21.10;48.50;;;;;;6247759;28;20073;-73
2021/05/10 14:52:49;;;;;;;0.40;0.40;;;21.10;48.50;;;;;;6245257;28;20021;-73
2021/05/10 14:55:51;;;;;;;1.48;0.65;;;21.10;48.50;;;;;;6245385;28;20025;-74
2021/05/10 14:58:52;;;;;;;0.77;0.52;;;21.10;48.50;;;;;;6247044;28;20021;-73
2021/05/10 15:01:52;;;;;;;0.57;0.55;;;21.10;48.50;;;;;;6246807;28;20025;-73
2021/05/10 15:04:53;;;;;;;1.83;0.60;;;21.10;48.40;;;;;;6245186;28;20038;-73
2021/05/10 15:07:53;;;;;;;0.70;0.60;;;21.10;48.50;;;;;;6249821;28;20030;-73
2021/05/10 15:10:54;;;;;;;0.40;0.40;;;21.10;48.50;;;;;;6245913;28;20400;-73
2021/05/10 15:13:55;;;;;;;0.75;0.50;;;21.10;48.50;;;;;;6246411;28;20033;-73
2021/05/10 15:16:55;;;;;;;0.50;0.50;;;21.10;48.50;;;;;;6246538;28;20443;-73
2021/05/10 15:19:56;;;;;;;0.85;0.70;;;21.10;48.50;;;;;;6245805;28;20033;-73
2021/05/10 15:22:57;;;;;;;1.00;0.60;;;21.10;48.50;;;;;;6245587;28;20055;-73
2021/05/10 15:25:58;;;;;;;0.73;0.60;;;21.10;48.50;;;;;;6245802;28;20393;-75
2021/05/10 15:28:58;;;;;;;1.23;0.63;;;21.10;48.50;;;;;;6241721;28;20022;-73
2021/05/10 15:31:59;;;;;;;0.45;0.43;;;21.10;48.50;;;;;;6246230;28;20033;-73
2021/05/10 15:35:01;;;;;;;1.17;0.60;;;21.10;48.50;;;;;;6245034;28;20060;-73
2021/05/10 15:38:02;;;;;;;0.65;0.30;;;21.10;48.50;;;;;;6246131;28;20041;-73
2021/05/10 15:41:02;;;;;;;0.55;0.45;;;21.10;48.50;;;;;;6244788;28;20083;-74
2021/05/10 15:44:03;;;;;;;2.38;0.40;;;21.10;48.60;;;;;;6244903;28;20026;-73
2021/05/10 15:47:04;;;;;;;1.52;0.40;;;21.10;48.60;;;;;;6243875;28;20434;-73
2021/05/10 15:50:09;;;;;;;1.60;0.60;;;21.10;48.60;;;;;;6245424;28;20071;-73
2021/05/10 15:53:10;;;;;;;3.22;0.55;;;21.10;48.60;;;;;;6245387;28;20112;-73
2021/05/10 15:56:10;;;;;;;1.77;0.45;;;21.10;48.60;;;;;;6245540;28;20455;-73
2021/05/10 15:59:11;;;;;;;1.65;0.57;;;21.10;48.60;;;;;;6244648;28;21023;-73
2021/05/10 16:02:11;;;;;;;1.08;0.60;;;21.10;48.60;;;;;;6244790;28;20104;-73
2021/05/10 16:05:13;;;;;;;0.47;0.40;;;21.00;48.60;;;;;;6243186;28;20035;-73
2021/05/10 16:08:14;;;;;;;0.75;0.57;;;21.10;48.60;;;;;;6242480;28;20044;-73
2021/05/10 16:11:14;;;;;;;0.90;0.52;;;21.00;48.60;;;;;;6244156;28;20029;-74
2021/05/10 16:14:14;;;;;;;0.50;0.50;;;21.10;48.60;;;;;;6244541;28;20037;-74